Terminal Aerodrome Forecast
Issued by NWS Sterling, VA

Current Version | Previous Version | Graphics & Text | Print | Product List | Glossary On
Versions: 1 2 3 4 5 6 7 8 9 10 11 12 13 14 15 16 17 18 19 20 21 22 23 24
000
FTUS41 KLWX 221513 AAA
TAFIAD
TAF AMD
KIAD 221513Z 2215/2318 19013G23KT P6SM SKC
     FM221700 24014G33KT P6SM -SHRA SCT040 BKN060
     FM222000 27015G29KT P6SM BKN060
     FM230000 28009KT P6SM SCT250
     FM231400 27012G22KT P6SM BKN050=

USA.gov is the U.S. government's official web portal to all federal, state and local government web resources and services.